Hauptseite
METAR-TAF:

METAR-TAF

Flughäfen :

Wilkes-Barre/Scranton International Airport

Wilkes-Barre / Scranton, Pennsylvania, Vereinigte Staaten

Breite: 41-20-20N, Länge: 075-43-36W, Höhe: 293 m

Beobachtung

Neuester Wetterbericht von vor 15 Minuten, um 00:54 UTC
Wind 3 kt aus Südwest
Temperatur 2°C
Luftfeuchtigkeit 64%
Luftdruck 1018 hPa
Sichtweite: 16.1 km
Geschlossene Wolkendecke in der Höhe von 11000 ft

METAR: KAVP 170054Z 23003KT 10SM OVC110 02/M04 A3007 RMK AO2 SLP191 T00221039 $

Zeit: 20:09 (01:09 UTC)

Prognose

Neuester Wetterbericht von vor 1 Stunde und 48 Minuten, um 23:21 UTC
Gültige Prognose vom 17 um 00 UTC bis 17 um 24 UTC
Wind 4 kt aus West/Südwest
Sichtweite: 10 km
Durchbrochene Bewölkung in der Höhe von 5000 ft
Ab 17 um 0600 UTC
Wind 4 kt aus Nord/Nordwest
Sichtweite: 10 km
Aufgelockert bewölkt in der Höhe von 5000 ft

TAF: KAVP 162321Z 1700/1724 25004KT P6SM BKN050 FM170600 33004KT P6SM SCT050

Wetterbeobachtungen und Prognosen von mehr als 4000 Flughäfen (METAR und TAF Bericht).

Die verfügbaren Stationen werden durch gelbe und rote Markierungen auf der Karte dargestellt.

Führen Sie die Maus auf sie, um den Namen der Station zu sehen.

Darauf klicken, um die Beobachtung von Wetterbeobachtungen und Prognosen zu sehen.

Um die Karte zu ändern : klicken Sie auf den grünen Tasten mit einem schwarzen Kreuz Zum Vergrößern, auf den grünen Button mit einem Gedankenstrich zu verkleinern, oder auf die grünen Pfeile für benachbarte Karten.


METAR-TAF: